sensor_id;sensor_type;location;lat;lon;timestamp;P1;durP1;ratioP1;P2;durP2;ratioP2
60472;SDS011;46318;52.716;6.444;2023-04-15T00:01:26;10.57;;;7.47;;
60472;SDS011;46318;52.716;6.444;2023-04-15T00:03:53;9.50;;;8.27;;
60472;SDS011;46318;52.716;6.444;2023-04-15T00:06:20;11.00;;;7.75;;
60472;SDS011;46318;52.716;6.444;2023-04-15T00:08:46;9.77;;;7.93;;
60472;SDS011;46318;52.716;6.444;2023-04-15T00:11:14;10.40;;;7.07;;
60472;SDS011;46318;52.716;6.444;2023-04-15T00:13:43;13.23;;;7.57;;
60472;SDS011;46318;52.716;6.444;2023-04-15T00:16:09;11.27;;;7.40;;
60472;SDS011;46318;52.716;6.444;2023-04-15T00:18:36;9.52;;;7.63;;
60472;SDS011;46318;52.716;6.444;2023-04-15T00:21:02;9.98;;;8.07;;
60472;SDS011;46318;52.716;6.444;2023-04-15T00:23:29;11.02;;;8.65;;
60472;SDS011;46318;52.716;6.444;2023-04-15T00:25:56;14.38;;;7.93;;
60472;SDS011;46318;52.716;6.444;2023-04-15T00:28:22;9.77;;;7.25;;
60472;SDS011;46318;52.716;6.444;2023-04-15T00:30:48;10.60;;;8.15;;
60472;SDS011;46318;52.716;6.444;2023-04-15T00:33:14;11.32;;;8.23;;
60472;SDS011;46318;52.716;6.444;2023-04-15T00:35:42;10.70;;;7.82;;
60472;SDS011;46318;52.716;6.444;2023-04-15T00:38:11;9.02;;;7.50;;
60472;SDS011;46318;52.716;6.444;2023-04-15T00:40:37;9.63;;;7.78;;
60472;SDS011;46318;52.716;6.444;2023-04-15T00:43:03;10.90;;;7.97;;
60472;SDS011;46318;52.716;6.444;2023-04-15T00:45:29;10.75;;;8.85;;
60472;SDS011;46318;52.716;6.444;2023-04-15T00:47:55;10.32;;;7.95;;
60472;SDS011;46318;52.716;6.444;2023-04-15T00:50:22;12.52;;;7.70;;
60472;SDS011;46318;52.716;6.444;2023-04-15T00:52:48;10.10;;;8.20;;
60472;SDS011;46318;52.716;6.444;2023-04-15T00:55:14;10.20;;;8.00;;
60472;SDS011;46318;52.716;6.444;2023-04-15T00:57:40;12.02;;;7.90;;
60472;SDS011;46318;52.716;6.444;2023-04-15T01:00:06;9.73;;;7.63;;
60472;SDS011;46318;52.716;6.444;2023-04-15T01:02:34;8.43;;;7.53;;
60472;SDS011;46318;52.716;6.444;2023-04-15T01:05:00;11.38;;;7.72;;
60472;SDS011;46318;52.716;6.444;2023-04-15T01:07:28;10.32;;;7.80;;
60472;SDS011;46318;52.716;6.444;2023-04-15T01:09:55;11.18;;;8.70;;
60472;SDS011;46318;52.716;6.444;2023-04-15T01:12:21;11.73;;;7.88;;
60472;SDS011;46318;52.716;6.444;2023-04-15T01:14:49;11.73;;;8.35;;
60472;SDS011;46318;52.716;6.444;2023-04-15T01:17:15;10.98;;;7.63;;
60472;SDS011;46318;52.716;6.444;2023-04-15T01:19:41;9.77;;;8.00;;
60472;SDS011;46318;52.716;6.444;2023-04-15T01:22:08;10.65;;;8.07;;
60472;SDS011;46318;52.716;6.444;2023-04-15T01:24:34;9.50;;;8.10;;
60472;SDS011;46318;52.716;6.444;2023-04-15T01:27:01;13.07;;;8.45;;
60472;SDS011;46318;52.716;6.444;2023-04-15T01:29:30;9.82;;;7.93;;
60472;SDS011;46318;52.716;6.444;2023-04-15T01:31:57;8.63;;;7.78;;
60472;SDS011;46318;52.716;6.444;2023-04-15T01:34:23;11.48;;;8.20;;
60472;SDS011;46318;52.716;6.444;2023-04-15T01:36:49;10.68;;;8.30;;
60472;SDS011;46318;52.716;6.444;2023-04-15T01:39:15;12.50;;;9.23;;
60472;SDS011;46318;52.716;6.444;2023-04-15T01:41:41;12.60;;;8.63;;
60472;SDS011;46318;52.716;6.444;2023-04-15T01:44:07;10.43;;;8.13;;
60472;SDS011;46318;52.716;6.444;2023-04-15T01:46:33;12.52;;;8.27;;
60472;SDS011;46318;52.716;6.444;2023-04-15T01:48:59;12.43;;;8.68;;
60472;SDS011;46318;52.716;6.444;2023-04-15T01:51:25;11.57;;;8.38;;
60472;SDS011;46318;52.716;6.444;2023-04-15T01:53:51;10.90;;;8.80;;
60472;SDS011;46318;52.716;6.444;2023-04-15T01:56:20;13.55;;;9.65;;
60472;SDS011;46318;52.716;6.444;2023-04-15T01:58:48;10.55;;;8.18;;
60472;SDS011;46318;52.716;6.444;2023-04-15T02:01:14;13.07;;;8.20;;
60472;SDS011;46318;52.716;6.444;2023-04-15T02:03:41;11.93;;;9.18;;
60472;SDS011;46318;52.716;6.444;2023-04-15T02:06:07;9.77;;;7.65;;
60472;SDS011;46318;52.716;6.444;2023-04-15T02:08:33;9.75;;;7.65;;
60472;SDS011;46318;52.716;6.444;2023-04-15T02:10:59;10.80;;;8.75;;
60472;SDS011;46318;52.716;6.444;2023-04-15T02:13:25;13.63;;;9.63;;
60472;SDS011;46318;52.716;6.444;2023-04-15T02:15:51;13.48;;;9.70;;
60472;SDS011;46318;52.716;6.444;2023-04-15T02:18:17;11.25;;;9.50;;
60472;SDS011;46318;52.716;6.444;2023-04-15T02:20:42;13.02;;;8.90;;
60472;SDS011;46318;52.716;6.444;2023-04-15T02:23:09;13.98;;;8.63;;
60472;SDS011;46318;52.716;6.444;2023-04-15T02:25:36;11.35;;;8.73;;
60472;SDS011;46318;52.716;6.444;2023-04-15T02:28:04;12.85;;;8.98;;
60472;SDS011;46318;52.716;6.444;2023-04-15T02:30:31;11.55;;;8.68;;
60472;SDS011;46318;52.716;6.444;2023-04-15T02:32:58;11.15;;;9.18;;
60472;SDS011;46318;52.716;6.444;2023-04-15T02:35:25;10.65;;;8.45;;
60472;SDS011;46318;52.716;6.444;2023-04-15T02:37:51;12.50;;;8.70;;
60472;SDS011;46318;52.716;6.444;2023-04-15T02:40:17;12.10;;;9.27;;
60472;SDS011;46318;52.716;6.444;2023-04-15T02:42:43;10.50;;;8.85;;
60472;SDS011;46318;52.716;6.444;2023-04-15T02:45:09;12.25;;;8.77;;
60472;SDS011;46318;52.716;6.444;2023-04-15T02:47:38;11.05;;;8.70;;
60472;SDS011;46318;52.716;6.444;2023-04-15T02:50:07;12.90;;;8.77;;
60472;SDS011;46318;52.716;6.444;2023-04-15T02:52:36;12.27;;;8.30;;
60472;SDS011;46318;52.716;6.444;2023-04-15T02:55:06;11.85;;;8.90;;
60472;SDS011;46318;52.716;6.444;2023-04-15T02:57:32;10.05;;;8.35;;
60472;SDS011;46318;52.716;6.444;2023-04-15T03:00:01;10.60;;;9.00;;
60472;SDS011;46318;52.716;6.444;2023-04-15T03:02:38;13.95;;;9.05;;
60472;SDS011;46318;52.716;6.444;2023-04-15T03:05:04;12.80;;;9.65;;
60472;SDS011;46318;52.716;6.444;2023-04-15T03:07:31;10.30;;;9.00;;
60472;SDS011;46318;52.716;6.444;2023-04-15T03:09:56;13.38;;;10.10;;
60472;SDS011;46318;52.716;6.444;2023-04-15T03:12:22;15.88;;;10.35;;
60472;SDS011;46318;52.716;6.444;2023-04-15T03:14:48;13.45;;;8.85;;
60472;SDS011;46318;52.716;6.444;2023-04-15T03:17:14;13.63;;;10.00;;
60472;SDS011;46318;52.716;6.444;2023-04-15T03:19:40;12.77;;;9.25;;
60472;SDS011;46318;52.716;6.444;2023-04-15T03:22:06;13.43;;;10.00;;
60472;SDS011;46318;52.716;6.444;2023-04-15T03:24:32;11.50;;;9.90;;
60472;SDS011;46318;52.716;6.444;2023-04-15T03:26:57;13.77;;;10.45;;
60472;SDS011;46318;52.716;6.444;2023-04-15T03:29:23;11.18;;;9.45;;
60472;SDS011;46318;52.716;6.444;2023-04-15T03:31:50;14.80;;;10.38;;
60472;SDS011;46318;52.716;6.444;2023-04-15T03:34:16;13.25;;;10.73;;
60472;SDS011;46318;52.716;6.444;2023-04-15T03:36:42;14.60;;;10.45;;
60472;SDS011;46318;52.716;6.444;2023-04-15T03:39:08;14.73;;;10.52;;
60472;SDS011;46318;52.716;6.444;2023-04-15T03:41:34;15.07;;;11.55;;
60472;SDS011;46318;52.716;6.444;2023-04-15T03:44:00;15.68;;;11.20;;
60472;SDS011;46318;52.716;6.444;2023-04-15T03:46:25;16.05;;;11.90;;
60472;SDS011;46318;52.716;6.444;2023-04-15T03:48:52;15.90;;;12.25;;
60472;SDS011;46318;52.716;6.444;2023-04-15T03:51:17;16.25;;;12.02;;
60472;SDS011;46318;52.716;6.444;2023-04-15T03:53:43;15.18;;;11.35;;
60472;SDS011;46318;52.716;6.444;2023-04-15T03:56:09;15.77;;;11.85;;
60472;SDS011;46318;52.716;6.444;2023-04-15T03:58:35;17.10;;;13.05;;
60472;SDS011;46318;52.716;6.444;2023-04-15T04:01:01;15.55;;;12.32;;
60472;SDS011;46318;52.716;6.444;2023-04-15T04:03:27;15.98;;;11.77;;
60472;SDS011;46318;52.716;6.444;2023-04-15T04:05:52;17.27;;;12.90;;
60472;SDS011;46318;52.716;6.444;2023-04-15T04:08:18;18.50;;;12.93;;
60472;SDS011;46318;52.716;6.444;2023-04-15T04:10:45;17.63;;;12.40;;
60472;SDS011;46318;52.716;6.444;2023-04-15T04:13:11;15.05;;;12.13;;
60472;SDS011;46318;52.716;6.444;2023-04-15T04:15:37;14.50;;;12.60;;
60472;SDS011;46318;52.716;6.444;2023-04-15T04:18:03;18.23;;;13.30;;
60472;SDS011;46318;52.716;6.444;2023-04-15T04:20:28;19.20;;;13.65;;
60472;SDS011;46318;52.716;6.444;2023-04-15T04:22:56;17.95;;;13.02;;
60472;SDS011;46318;52.716;6.444;2023-04-15T04:25:22;15.60;;;12.32;;
60472;SDS011;46318;52.716;6.444;2023-04-15T04:27:48;16.25;;;13.30;;
60472;SDS011;46318;52.716;6.444;2023-04-15T04:30:14;15.63;;;13.38;;
60472;SDS011;46318;52.716;6.444;2023-04-15T04:32:41;16.17;;;13.02;;
60472;SDS011;46318;52.716;6.444;2023-04-15T04:35:07;18.50;;;14.45;;
60472;SDS011;46318;52.716;6.444;2023-04-15T04:37:33;18.10;;;14.02;;
60472;SDS011;46318;52.716;6.444;2023-04-15T04:39:59;18.20;;;13.63;;
60472;SDS011;46318;52.716;6.444;2023-04-15T04:42:24;16.98;;;13.48;;
60472;SDS011;46318;52.716;6.444;2023-04-15T04:44:50;16.13;;;12.95;;
60472;SDS011;46318;52.716;6.444;2023-04-15T04:47:16;21.10;;;14.63;;
60472;SDS011;46318;52.716;6.444;2023-04-15T04:49:42;19.65;;;14.18;;
60472;SDS011;46318;52.716;6.444;2023-04-15T04:52:08;17.33;;;14.07;;
60472;SDS011;46318;52.716;6.444;2023-04-15T04:54:34;19.02;;;13.90;;
60472;SDS011;46318;52.716;6.444;2023-04-15T04:56:59;20.05;;;14.13;;
60472;SDS011;46318;52.716;6.444;2023-04-15T04:59:25;17.35;;;14.18;;
60472;SDS011;46318;52.716;6.444;2023-04-15T05:01:52;16.40;;;13.40;;
60472;SDS011;46318;52.716;6.444;2023-04-15T05:04:17;16.92;;;14.05;;
60472;SDS011;46318;52.716;6.444;2023-04-15T05:06:43;17.20;;;13.27;;
60472;SDS011;46318;52.716;6.444;2023-04-15T05:09:09;17.65;;;13.57;;
60472;SDS011;46318;52.716;6.444;2023-04-15T05:11:35;19.80;;;13.55;;
60472;SDS011;46318;52.716;6.444;2023-04-15T05:14:01;19.85;;;13.50;;
60472;SDS011;46318;52.716;6.444;2023-04-15T05:16:27;16.58;;;13.13;;
60472;SDS011;46318;52.716;6.444;2023-04-15T05:18:53;16.25;;;13.10;;
60472;SDS011;46318;52.716;6.444;2023-04-15T05:21:19;19.45;;;13.60;;
60472;SDS011;46318;52.716;6.444;2023-04-15T05:23:45;18.15;;;13.63;;
60472;SDS011;46318;52.716;6.444;2023-04-15T05:26:11;19.88;;;14.32;;
60472;SDS011;46318;52.716;6.444;2023-04-15T05:28:37;17.98;;;13.98;;
60472;SDS011;46318;52.716;6.444;2023-04-15T05:31:02;17.75;;;13.18;;
60472;SDS011;46318;52.716;6.444;2023-04-15T05:33:28;17.98;;;13.73;;
60472;SDS011;46318;52.716;6.444;2023-04-15T05:35:54;19.17;;;13.75;;
60472;SDS011;46318;52.716;6.444;2023-04-15T05:38:20;18.00;;;14.13;;
60472;SDS011;46318;52.716;6.444;2023-04-15T05:40:46;20.52;;;15.20;;
60472;SDS011;46318;52.716;6.444;2023-04-15T05:43:12;20.00;;;14.30;;
60472;SDS011;46318;52.716;6.444;2023-04-15T05:45:38;18.25;;;14.02;;
60472;SDS011;46318;52.716;6.444;2023-04-15T05:48:04;19.88;;;14.40;;
60472;SDS011;46318;52.716;6.444;2023-04-15T05:50:30;20.80;;;14.02;;
60472;SDS011;46318;52.716;6.444;2023-04-15T05:52:56;19.77;;;14.27;;
60472;SDS011;46318;52.716;6.444;2023-04-15T05:55:21;18.13;;;13.40;;
60472;SDS011;46318;52.716;6.444;2023-04-15T05:57:47;17.70;;;13.90;;
60472;SDS011;46318;52.716;6.444;2023-04-15T06:00:13;18.75;;;14.15;;
60472;SDS011;46318;52.716;6.444;2023-04-15T06:02:40;19.65;;;14.48;;
60472;SDS011;46318;52.716;6.444;2023-04-15T06:05:06;19.98;;;15.05;;
60472;SDS011;46318;52.716;6.444;2023-04-15T06:07:36;19.33;;;14.40;;
60472;SDS011;46318;52.716;6.444;2023-04-15T06:10:03;23.25;;;14.70;;
60472;SDS011;46318;52.716;6.444;2023-04-15T06:12:30;22.35;;;15.45;;
60472;SDS011;46318;52.716;6.444;2023-04-15T06:14:56;20.52;;;15.23;;
60472;SDS011;46318;52.716;6.444;2023-04-15T06:17:21;20.05;;;15.13;;
60472;SDS011;46318;52.716;6.444;2023-04-15T06:19:47;21.50;;;15.32;;
60472;SDS011;46318;52.716;6.444;2023-04-15T06:22:14;21.38;;;16.35;;
60472;SDS011;46318;52.716;6.444;2023-04-15T06:24:40;23.63;;;16.25;;
60472;SDS011;46318;52.716;6.444;2023-04-15T06:27:06;21.73;;;15.18;;
60472;SDS011;46318;52.716;6.444;2023-04-15T06:29:32;19.90;;;14.93;;
60472;SDS011;46318;52.716;6.444;2023-04-15T06:31:58;21.73;;;15.50;;
60472;SDS011;46318;52.716;6.444;2023-04-15T06:34:24;20.10;;;15.00;;
60472;SDS011;46318;52.716;6.444;2023-04-15T06:36:50;21.80;;;15.45;;
60472;SDS011;46318;52.716;6.444;2023-04-15T06:39:16;23.50;;;14.68;;
60472;SDS011;46318;52.716;6.444;2023-04-15T06:41:41;19.33;;;14.77;;
60472;SDS011;46318;52.716;6.444;2023-04-15T06:44:07;21.30;;;15.50;;
60472;SDS011;46318;52.716;6.444;2023-04-15T06:46:33;21.88;;;15.05;;
60472;SDS011;46318;52.716;6.444;2023-04-15T06:48:59;17.98;;;13.82;;
60472;SDS011;46318;52.716;6.444;2023-04-15T06:51:25;22.20;;;16.10;;
60472;SDS011;46318;52.716;6.444;2023-04-15T06:53:51;20.85;;;15.75;;
60472;SDS011;46318;52.716;6.444;2023-04-15T06:56:17;22.25;;;15.57;;
60472;SDS011;46318;52.716;6.444;2023-04-15T06:58:42;23.13;;;15.35;;
60472;SDS011;46318;52.716;6.444;2023-04-15T07:01:08;21.48;;;16.58;;
60472;SDS011;46318;52.716;6.444;2023-04-15T07:03:34;23.50;;;16.20;;
60472;SDS011;46318;52.716;6.444;2023-04-15T07:06:00;22.75;;;16.65;;
60472;SDS011;46318;52.716;6.444;2023-04-15T07:08:30;23.25;;;16.98;;
60472;SDS011;46318;52.716;6.444;2023-04-15T07:10:57;20.48;;;15.80;;
60472;SDS011;46318;52.716;6.444;2023-04-15T07:13:24;24.52;;;16.77;;
60472;SDS011;46318;52.716;6.444;2023-04-15T07:15:51;22.65;;;15.70;;
60472;SDS011;46318;52.716;6.444;2023-04-15T07:18:16;21.55;;;16.38;;
60472;SDS011;46318;52.716;6.444;2023-04-15T07:20:42;21.73;;;16.15;;
60472;SDS011;46318;52.716;6.444;2023-04-15T07:23:08;19.80;;;15.63;;
60472;SDS011;46318;52.716;6.444;2023-04-15T07:25:34;21.98;;;15.52;;
60472;SDS011;46318;52.716;6.444;2023-04-15T07:28:00;19.42;;;14.60;;
60472;SDS011;46318;52.716;6.444;2023-04-15T07:30:26;19.02;;;14.95;;
60472;SDS011;46318;52.716;6.444;2023-04-15T07:32:53;21.40;;;15.02;;
60472;SDS011;46318;52.716;6.444;2023-04-15T07:35:19;20.42;;;14.10;;
60472;SDS011;46318;52.716;6.444;2023-04-15T07:37:45;18.45;;;13.15;;
60472;SDS011;46318;52.716;6.444;2023-04-15T07:40:12;19.23;;;14.05;;
60472;SDS011;46318;52.716;6.444;2023-04-15T07:42:40;19.23;;;13.85;;
60472;SDS011;46318;52.716;6.444;2023-04-15T07:45:06;18.70;;;13.05;;
60472;SDS011;46318;52.716;6.444;2023-04-15T07:47:33;19.23;;;13.38;;
60472;SDS011;46318;52.716;6.444;2023-04-15T07:49:59;18.73;;;13.77;;
60472;SDS011;46318;52.716;6.444;2023-04-15T07:52:26;17.35;;;12.95;;
60472;SDS011;46318;52.716;6.444;2023-04-15T07:54:52;19.48;;;12.82;;
60472;SDS011;46318;52.716;6.444;2023-04-15T07:57:18;14.20;;;12.00;;
60472;SDS011;46318;52.716;6.444;2023-04-15T07:59:44;15.45;;;12.15;;
60472;SDS011;46318;52.716;6.444;2023-04-15T08:02:10;14.52;;;11.50;;
60472;SDS011;46318;52.716;6.444;2023-04-15T08:04:36;18.40;;;11.52;;
60472;SDS011;46318;52.716;6.444;2023-04-15T08:07:02;14.88;;;11.55;;
60472;SDS011;46318;52.716;6.444;2023-04-15T08:09:29;15.13;;;10.80;;
60472;SDS011;46318;52.716;6.444;2023-04-15T08:11:55;17.80;;;11.52;;
60472;SDS011;46318;52.716;6.444;2023-04-15T08:14:21;14.88;;;10.60;;
60472;SDS011;46318;52.716;6.444;2023-04-15T08:16:48;14.57;;;11.05;;
60472;SDS011;46318;52.716;6.444;2023-04-15T08:19:14;15.52;;;10.85;;
60472;SDS011;46318;52.716;6.444;2023-04-15T08:21:41;15.57;;;11.27;;
60472;SDS011;46318;52.716;6.444;2023-04-15T08:24:07;14.52;;;10.80;;
60472;SDS011;46318;52.716;6.444;2023-04-15T08:26:32;12.85;;;10.30;;
60472;SDS011;46318;52.716;6.444;2023-04-15T08:28:58;12.63;;;10.35;;
60472;SDS011;46318;52.716;6.444;2023-04-15T08:31:25;12.70;;;10.35;;
60472;SDS011;46318;52.716;6.444;2023-04-15T08:33:55;11.68;;;9.60;;
60472;SDS011;46318;52.716;6.444;2023-04-15T08:36:21;11.55;;;9.43;;
60472;SDS011;46318;52.716;6.444;2023-04-15T08:38:47;12.82;;;9.60;;
60472;SDS011;46318;52.716;6.444;2023-04-15T08:41:20;12.00;;;8.93;;
60472;SDS011;46318;52.716;6.444;2023-04-15T08:43:56;10.30;;;7.88;;
60472;SDS011;46318;52.716;6.444;2023-04-15T08:46:28;8.27;;;7.22;;
60472;SDS011;46318;52.716;6.444;2023-04-15T08:48:59;7.68;;;6.57;;
60472;SDS011;46318;52.716;6.444;2023-04-15T08:51:28;10.10;;;7.03;;
60472;SDS011;46318;52.716;6.444;2023-04-15T08:53:54;7.25;;;6.38;;
60472;SDS011;46318;52.716;6.444;2023-04-15T08:56:21;7.72;;;6.40;;
60472;SDS011;46318;52.716;6.444;2023-04-15T08:58:52;7.05;;;6.03;;
60472;SDS011;46318;52.716;6.444;2023-04-15T09:01:18;8.32;;;5.55;;
60472;SDS011;46318;52.716;6.444;2023-04-15T09:03:46;7.30;;;5.65;;
60472;SDS011;46318;52.716;6.444;2023-04-15T09:06:15;6.32;;;5.65;;
60472;SDS011;46318;52.716;6.444;2023-04-15T09:08:42;8.57;;;5.93;;
60472;SDS011;46318;52.716;6.444;2023-04-15T09:11:08;6.65;;;6.03;;
60472;SDS011;46318;52.716;6.444;2023-04-15T09:13:35;8.57;;;6.28;;
60472;SDS011;46318;52.716;6.444;2023-04-15T09:16:01;9.82;;;6.55;;
60472;SDS011;46318;52.716;6.444;2023-04-15T09:18:35;7.43;;;5.75;;
60472;SDS011;46318;52.716;6.444;2023-04-15T09:21:03;7.75;;;6.35;;
60472;SDS011;46318;52.716;6.444;2023-04-15T09:23:30;9.23;;;6.85;;
60472;SDS011;46318;52.716;6.444;2023-04-15T09:25:56;9.30;;;6.40;;
60472;SDS011;46318;52.716;6.444;2023-04-15T09:28:23;6.68;;;5.75;;
60472;SDS011;46318;52.716;6.444;2023-04-15T09:30:55;8.98;;;7.30;;
60472;SDS011;46318;52.716;6.444;2023-04-15T09:33:23;7.78;;;6.53;;
60472;SDS011;46318;52.716;6.444;2023-04-15T09:35:59;9.80;;;6.63;;
60472;SDS011;46318;52.716;6.444;2023-04-15T09:38:29;8.73;;;6.60;;
60472;SDS011;46318;52.716;6.444;2023-04-15T09:40:56;7.97;;;5.78;;
60472;SDS011;46318;52.716;6.444;2023-04-15T09:43:25;7.95;;;6.28;;
60472;SDS011;46318;52.716;6.444;2023-04-15T09:46:05;7.57;;;5.88;;
60472;SDS011;46318;52.716;6.444;2023-04-15T09:48:31;8.35;;;6.03;;
60472;SDS011;46318;52.716;6.444;2023-04-15T09:50:57;9.63;;;5.55;;
60472;SDS011;46318;52.716;6.444;2023-04-15T09:53:25;8.48;;;5.80;;
60472;SDS011;46318;52.716;6.444;2023-04-15T09:55:53;7.78;;;5.55;;
60472;SDS011;46318;52.716;6.444;2023-04-15T09:58:24;7.70;;;4.85;;
60472;SDS011;46318;52.716;6.444;2023-04-15T10:00:52;9.00;;;4.63;;
60472;SDS011;46318;52.716;6.444;2023-04-15T10:03:21;6.25;;;4.18;;
60472;SDS011;46318;52.716;6.444;2023-04-15T10:05:50;6.72;;;4.72;;
60472;SDS011;46318;52.716;6.444;2023-04-15T10:08:19;9.27;;;4.88;;
60472;SDS011;46318;52.716;6.444;2023-04-15T10:10:48;8.13;;;4.50;;
60472;SDS011;46318;52.716;6.444;2023-04-15T10:13:16;6.82;;;3.67;;
60472;SDS011;46318;52.716;6.444;2023-04-15T10:15:59;4.93;;;3.20;;
60472;SDS011;46318;52.716;6.444;2023-04-15T10:18:31;5.07;;;2.83;;
60472;SDS011;46318;52.716;6.444;2023-04-15T10:21:00;10.52;;;3.50;;
60472;SDS011;46318;52.716;6.444;2023-04-15T10:23:26;3.88;;;2.90;;
60472;SDS011;46318;52.716;6.444;2023-04-15T10:25:53;5.38;;;3.38;;
60472;SDS011;46318;52.716;6.444;2023-04-15T10:28:19;4.60;;;3.30;;
60472;SDS011;46318;52.716;6.444;2023-04-15T10:30:48;5.93;;;3.40;;
60472;SDS011;46318;52.716;6.444;2023-04-15T10:33:15;6.65;;;3.47;;
60472;SDS011;46318;52.716;6.444;2023-04-15T10:35:45;5.32;;;3.55;;
60472;SDS011;46318;52.716;6.444;2023-04-15T10:41:11;6.20;;;4.03;;
60472;SDS011;46318;52.716;6.444;2023-04-15T10:43:48;4.15;;;3.00;;
60472;SDS011;46318;52.716;6.444;2023-04-15T10:46:37;5.07;;;2.97;;
60472;SDS011;46318;52.716;6.444;2023-04-15T10:49:07;2.63;;;2.42;;
60472;SDS011;46318;52.716;6.444;2023-04-15T10:51:40;2.40;;;2.20;;
60472;SDS011;46318;52.716;6.444;2023-04-15T10:54:12;5.43;;;3.10;;
60472;SDS011;46318;52.716;6.444;2023-04-15T10:56:43;7.68;;;3.50;;
60472;SDS011;46318;52.716;6.444;2023-04-15T10:59:09;6.53;;;3.40;;
60472;SDS011;46318;52.716;6.444;2023-04-15T11:01:55;4.80;;;3.10;;
60472;SDS011;46318;52.716;6.444;2023-04-15T11:12:59;4.68;;;2.80;;
60472;SDS011;46318;52.716;6.444;2023-04-15T11:15:38;4.07;;;2.47;;
60472;SDS011;46318;52.716;6.444;2023-04-15T11:20:57;2.28;;;2.08;;
60472;SDS011;46318;52.716;6.444;2023-04-15T11:26:11;5.32;;;2.60;;
60472;SDS011;46318;52.716;6.444;2023-04-15T11:28:42;3.65;;;2.10;;
60472;SDS011;46318;52.716;6.444;2023-04-15T11:33:37;3.30;;;2.10;;
60472;SDS011;46318;52.716;6.444;2023-04-15T11:36:11;3.30;;;2.10;;
60472;SDS011;46318;52.716;6.444;2023-04-15T11:38:41;2.67;;;1.90;;
60472;SDS011;46318;52.716;6.444;2023-04-15T11:41:08;2.33;;;1.90;;
60472;SDS011;46318;52.716;6.444;2023-04-15T11:43:34;2.78;;;2.20;;
60472;SDS011;46318;52.716;6.444;2023-04-15T11:46:01;2.72;;;1.98;;
60472;SDS011;46318;52.716;6.444;2023-04-15T11:48:32;2.58;;;2.38;;
60472;SDS011;46318;52.716;6.444;2023-04-15T11:51:02;2.90;;;2.20;;
60472;SDS011;46318;52.716;6.444;2023-04-15T11:53:37;4.68;;;2.38;;
60472;SDS011;46318;52.716;6.444;2023-04-15T11:58:55;3.70;;;2.20;;
60472;SDS011;46318;52.716;6.444;2023-04-15T12:01:30;3.08;;;2.28;;
60472;SDS011;46318;52.716;6.444;2023-04-15T12:04:00;4.18;;;2.78;;
60472;SDS011;46318;52.716;6.444;2023-04-15T12:06:33;4.97;;;2.75;;
60472;SDS011;46318;52.716;6.444;2023-04-15T12:11:46;5.97;;;3.30;;
60472;SDS011;46318;52.716;6.444;2023-04-15T12:14:30;5.38;;;2.80;;
60472;SDS011;46318;52.716;6.444;2023-04-15T12:17:02;5.30;;;2.80;;
60472;SDS011;46318;52.716;6.444;2023-04-15T12:22:01;3.53;;;2.58;;
60472;SDS011;46318;52.716;6.444;2023-04-15T12:24:38;4.03;;;2.88;;
60472;SDS011;46318;52.716;6.444;2023-04-15T12:27:07;4.28;;;3.15;;
60472;SDS011;46318;52.716;6.444;2023-04-15T12:29:35;4.07;;;2.92;;
60472;SDS011;46318;52.716;6.444;2023-04-15T12:32:07;4.50;;;3.00;;
60472;SDS011;46318;52.716;6.444;2023-04-15T12:34:45;4.28;;;2.88;;
60472;SDS011;46318;52.716;6.444;2023-04-15T12:39:43;5.32;;;2.65;;
60472;SDS011;46318;52.716;6.444;2023-04-15T12:42:13;7.03;;;2.47;;
60472;SDS011;46318;52.716;6.444;2023-04-15T12:44:40;5.78;;;2.38;;
60472;SDS011;46318;52.716;6.444;2023-04-15T12:47:07;5.05;;;2.60;;
60472;SDS011;46318;52.716;6.444;2023-04-15T12:49:33;4.93;;;2.60;;
60472;SDS011;46318;52.716;6.444;2023-04-15T12:52:00;5.93;;;2.65;;
60472;SDS011;46318;52.716;6.444;2023-04-15T12:54:27;4.53;;;2.13;;
60472;SDS011;46318;52.716;6.444;2023-04-15T12:56:54;6.10;;;2.22;;
60472;SDS011;46318;52.716;6.444;2023-04-15T12:59:21;4.78;;;2.10;;
60472;SDS011;46318;52.716;6.444;2023-04-15T13:01:48;5.28;;;2.15;;
60472;SDS011;46318;52.716;6.444;2023-04-15T13:04:15;5.75;;;2.67;;
60472;SDS011;46318;52.716;6.444;2023-04-15T13:06:41;5.97;;;2.88;;
60472;SDS011;46318;52.716;6.444;2023-04-15T13:09:07;5.50;;;2.30;;
60472;SDS011;46318;52.716;6.444;2023-04-15T13:11:33;5.82;;;2.25;;
60472;SDS011;46318;52.716;6.444;2023-04-15T13:14:00;5.10;;;2.15;;
60472;SDS011;46318;52.716;6.444;2023-04-15T13:16:28;4.90;;;2.38;;
60472;SDS011;46318;52.716;6.444;2023-04-15T13:18:56;5.30;;;2.88;;
60472;SDS011;46318;52.716;6.444;2023-04-15T13:21:23;4.70;;;2.30;;
60472;SDS011;46318;52.716;6.444;2023-04-15T13:23:49;8.82;;;2.78;;
60472;SDS011;46318;52.716;6.444;2023-04-15T13:26:16;7.90;;;2.63;;
60472;SDS011;46318;52.716;6.444;2023-04-15T13:28:42;5.15;;;2.55;;
60472;SDS011;46318;52.716;6.444;2023-04-15T13:31:08;5.28;;;2.50;;
60472;SDS011;46318;52.716;6.444;2023-04-15T13:33:34;9.73;;;3.08;;
60472;SDS011;46318;52.716;6.444;2023-04-15T13:36:00;2.63;;;2.17;;
60472;SDS011;46318;52.716;6.444;2023-04-15T13:38:26;5.07;;;2.70;;
60472;SDS011;46318;52.716;6.444;2023-04-15T13:40:52;6.68;;;2.45;;
60472;SDS011;46318;52.716;6.444;2023-04-15T13:43:18;14.82;;;2.95;;
60472;SDS011;46318;52.716;6.444;2023-04-15T13:45:45;7.55;;;2.92;;
60472;SDS011;46318;52.716;6.444;2023-04-15T13:48:11;7.50;;;2.53;;
60472;SDS011;46318;52.716;6.444;2023-04-15T13:50:37;10.63;;;2.97;;
60472;SDS011;46318;52.716;6.444;2023-04-15T13:53:03;7.25;;;2.45;;
60472;SDS011;46318;52.716;6.444;2023-04-15T13:55:29;8.80;;;2.65;;
60472;SDS011;46318;52.716;6.444;2023-04-15T13:57:55;3.92;;;2.40;;
60472;SDS011;46318;52.716;6.444;2023-04-15T14:00:21;4.75;;;2.42;;
60472;SDS011;46318;52.716;6.444;2023-04-15T14:02:47;4.38;;;2.25;;
60472;SDS011;46318;52.716;6.444;2023-04-15T14:05:13;5.13;;;2.13;;
60472;SDS011;46318;52.716;6.444;2023-04-15T14:07:39;4.55;;;2.15;;
60472;SDS011;46318;52.716;6.444;2023-04-15T14:10:05;4.60;;;2.25;;
60472;SDS011;46318;52.716;6.444;2023-04-15T14:12:31;6.75;;;2.35;;
60472;SDS011;46318;52.716;6.444;2023-04-15T14:14:57;5.93;;;2.05;;
60472;SDS011;46318;52.716;6.444;2023-04-15T14:17:23;4.90;;;2.15;;
60472;SDS011;46318;52.716;6.444;2023-04-15T14:19:50;7.15;;;2.20;;
60472;SDS011;46318;52.716;6.444;2023-04-15T14:22:16;7.00;;;2.35;;
60472;SDS011;46318;52.716;6.444;2023-04-15T14:24:43;7.38;;;2.25;;
60472;SDS011;46318;52.716;6.444;2023-04-15T14:27:09;7.57;;;2.38;;
60472;SDS011;46318;52.716;6.444;2023-04-15T14:29:36;8.20;;;1.92;;
60472;SDS011;46318;52.716;6.444;2023-04-15T14:32:02;6.53;;;2.25;;
60472;SDS011;46318;52.716;6.444;2023-04-15T14:34:28;6.88;;;2.72;;
60472;SDS011;46318;52.716;6.444;2023-04-15T14:36:54;7.28;;;2.03;;
60472;SDS011;46318;52.716;6.444;2023-04-15T14:39:20;8.10;;;2.20;;
60472;SDS011;46318;52.716;6.444;2023-04-15T14:41:46;7.43;;;2.22;;
60472;SDS011;46318;52.716;6.444;2023-04-15T14:44:12;6.03;;;2.40;;
60472;SDS011;46318;52.716;6.444;2023-04-15T14:46:39;7.13;;;2.53;;
60472;SDS011;46318;52.716;6.444;2023-04-15T14:49:05;4.38;;;2.50;;
60472;SDS011;46318;52.716;6.444;2023-04-15T14:51:31;4.15;;;2.13;;
60472;SDS011;46318;52.716;6.444;2023-04-15T14:53:59;7.97;;;2.33;;
60472;SDS011;46318;52.716;6.444;2023-04-15T14:56:25;9.00;;;2.63;;
60472;SDS011;46318;52.716;6.444;2023-04-15T14:58:51;6.35;;;2.53;;
60472;SDS011;46318;52.716;6.444;2023-04-15T15:01:18;8.40;;;3.15;;
60472;SDS011;46318;52.716;6.444;2023-04-15T15:03:45;8.98;;;2.42;;
60472;SDS011;46318;52.716;6.444;2023-04-15T15:06:12;6.80;;;2.05;;